Main page
METAR-TAF:

METAR-TAF

Airports :

Vojens Airport

Vojens, Denmark

latitude: 55-14N, longitude: 009-16E, elevation: 43 m

Current weather observation

The report was made 36 minutes ago, at 19:20 UTC
Wind 5 kt from the Northeast
Temperature 18°C
Humidity 52%
Pressure 1011 hPa
Visibility 10 km or more
no clouds below 1500 m and no cumulonimbus

METAR: EKSP 191920Z 05005KT CAVOK 18/08 Q1011 RMK SCT100

Time: 21:56 (19:56 UTC)

Forecast

The report was made 2 hours and 46 minutes ago, at 17:10 UTC
Forecast valid from 19 at 18 UTC to 20 at 18 UTC
Wind 10 kt from the East/Northeast
Visibility 10 km or more
Few clouds at a height of 5500 ft
Becoming
from 19 at 19 UTC to 19 at 21 UTC
Wind 3 kt from the North/Northeast
Becoming
from 20 at 08 UTC to 20 at 10 UTC
Wind 14 kt from the East/Southeast
Temporary
from 20 at 12 UTC to 20 at 18 UTC
Few clouds at a height of 5000 ft, Cumulonimbus.

TAF: EKSP 191710Z 1918/2018 06010KT 9999 FEW055 BECMG 1919/1921 03003KT BECMG 2008/2010 11014KT TEMPO 2012/2018 FEW050CB

Weather observations and forecasts of more than 4000 airports (METAR and TAF reports).

The available stations are represented by yellow and red dots on the map.

Hover mouse over dot to see the name of the station.

Then click to see weather observations and forecasts.

To change the map : click on the green buttons with a black cross to zoom in, on the green button with a dash to zoom out, or on the green arrows for adjacent maps.


METAR-TAF: